• Join FlightAware (Why Join?)
  • Login
  • US Flag 
03:13AM EST


 

Airport Tracker/Info


-or-


 

Live Flight TrackerFlight Track Log ✈ AWE4079 ✈ 21-Jul-2013 ✈ KMHT - KPHL

Flight Track Log - Related Links

Times and Time Zones

All times are in EDT time to prevent confusion due to time zone crossing. See the AWE4079 flight status page for this flight to view local times or setup timezone preferences in your user account.

Time Position Orientation Groundspeed Altitude Reporting Facility
EDT Latitude Longitude Course Direction KTS MPH feet Rate Location/Type
05:30AM 42.9500 -71.4167 270° West 154 177 900  Level KA90
05:31AM 43.0186 -71.3753 24° Northeast 180 207 3,800 1,920 Climbing Boston Center
05:32AM 42.9333 -71.6864 270° West  Level FlightAware Approximate
05:32AM 43.0544 -71.4200 318° Northwest 181 208 5,800  Level Boston Center
05:33AM 42.9404 -71.8137 279° West  Level FlightAware Approximate
05:33AM 43.0864 -71.5161 294° West 230 265 7,800  Level Boston Center
05:34AM 42.9500 -71.9408 270° West  Level FlightAware Approximate
05:34AM 43.1081 -71.5983 290° West 255 293 9,700  Level Boston Center
05:35AM 42.9501 -72.0688 270° West  Level FlightAware Approximate
05:35AM 43.0817 -71.7039 251° West 259 298 12,300  Level Boston Center
05:36AM 43.0592 -71.7894 250° West 265 305 14,400 1,680 Climbing Boston Center
05:38AM 43.0306 -71.9006 251° West 270 311 16,100 1,500 Climbing Boston Center
05:39AM 42.9978 -72.0283 251° West 293 337 17,800 1,440 Climbing Boston Center
05:40AM 42.9711 -72.1281 250° West 307 353 19,000 1,200 Climbing Boston Center
05:41AM 42.9400 -72.2500 251° West 312 359 20,300 1,200 Climbing Boston Center
05:42AM 42.9150 -72.3494 251° West 307 353 21,400 1,080 Climbing Boston Center
05:43AM 42.8839 -72.4656 250° West 313 360 22,500 960 Climbing Boston Center
05:44AM 42.8547 -72.5817 251° West 318 366 23,400 720 Climbing Boston Center
05:45AM 42.8169 -72.7033 247° West 323 372 24,000 300 Climbing Boston Center
05:46AM 42.7894 -72.8050 250° West 340 391 24,000  Level Boston Center
05:47AM 42.7514 -72.9461 250° West 340 391 24,000  Level Boston Center
05:48AM 42.7239 -73.0533 251° West 341 392 24,000  Level Boston Center
05:49AM 42.6919 -73.1689 249° West 346 398 24,000  Level Boston Center
05:50AM 42.6600 -73.2842 249° West 346 398 24,000  Level Boston Center
05:51AM 42.6278 -73.4022 250° West 341 392 24,000  Level Boston Center
05:52AM 42.5933 -73.5175 248° West 336 387 24,000  Level Boston Center
05:53AM 42.5608 -73.6325 249° West 330 380 24,000  Level Boston Center
05:54AM 42.5283 -73.7503 250° West 335 386 24,000  Level Boston Center
05:55AM 42.4956 -73.8706 250° West 335 386 24,000  Level Boston Center
05:56AM 42.4606 -73.9908 249° West 340 391 24,000  Level Boston Center
05:57AM 42.4256 -74.1136 249° West 346 398 24,000  Level Boston Center
05:58AM 42.3903 -74.2364 249° West 351 404 24,000  Level Boston Center
05:59AM 42.3550 -74.3589 249° West 351 404 24,000  Level Boston Center
06:00AM 42.3131 -74.4925 247° West 351 404 24,000 -420 Level Boston Center
06:01AM 42.2794 -74.6178 250° West 351 404 23,200 -780 Descending Boston Center
06:02AM 42.2278 -74.7953 249° West 347 399 22,000 -900 Descending New York Center
06:03AM 42.1903 -74.9189 248° West 347 399 21,000 -1,140 Descending New York Center
06:04AM 42.1161 -75.0147 224° Southwest 344 396 19,800 -1,020 Descending New York Center
06:05AM 42.0389 -75.0769 211° Southwest 347 399 19,000 -420 Descending New York Center
06:06AM 41.9572 -75.1442 211° Southwest 363 418 19,000  Level New York Center
06:07AM 41.8608 -75.2183 210° Southwest 370 426 19,000 -720 Level New York Center
06:08AM 41.7792 -75.2853 211° Southwest 370 426 17,700 -1,440 Descending New York Center
06:09AM 41.6956 -75.3517 211° Southwest 363 418 16,100 -1,560 Descending New York Center
06:10AM 41.6244 -75.4108 212° Southwest 350 403 14,600 -1,620 Descending New York Center
06:11AM 41.5472 -75.4719 211° Southwest 340 391 13,000 -1,320 Descending New York Center
06:12AM 41.4589 -75.5433 211° Southwest 340 391 12,000 -540 Descending New York Center
06:13AM 41.3794 -75.6039 210° Southwest 340 391 12,000  Level New York Center
06:14AM 41.3061 -75.6650 212° Southwest 340 391 12,000  Level New York Center
06:15AM 41.2136 -75.6831 188° South 334 384 12,000  Level New York Center
06:16AM 41.1169 -75.6539 167° South 341 392 12,000 -360 Level New York Center
06:17AM 41.0122 -75.6189 166° South 353 406 11,300 -720 Descending New York Center
06:18AM 40.9297 -75.5939 167° South 350 403 10,600 -660 Descending New York Center
06:19AM 40.8353 -75.5625 166° South 350 403 10,000 -360 Descending New York Center
06:20AM 40.7386 -75.5283 165° South 350 403 10,000  Level New York Center
06:21AM 40.6461 -75.4972 166° South 350 403 10,000  Level New York Center
06:22AM 40.5597 -75.4694 166° South 337 388 10,000  Level New York Center
06:23AM 40.4692 -75.4389 166° South 315 362 10,000  Level New York Center
06:24AM 40.3850 -75.4114 166° South 315 362 10,000  Level New York Center
06:25AM 40.3006 -75.3839 166° South 315 362 10,000 -780 Level New York Center
06:26AM 40.2283 -75.3628 167° South 315 362 8,500 -1,500 Descending New York Center
06:27AM 40.1461 -75.3383 167° South 315 362 7,100 -780 Descending New York Center
06:28AM 40.0919 -75.2831 142° Southeast 218 251 7,000 -540 Descending New York Center
06:29AM 40.0719 -75.2031 108° East 221 254 6,100 -960 Descending New York Center
06:30AM 40.0475 -75.1339 115° Southeast 228 262 5,100 -1,020 Descending New York Center